createdAt,value
2018-06-18T00:00:27.909Z,10.90
2018-06-18T00:02:57.159Z,9.13
2018-06-18T00:05:26.536Z,8.90
2018-06-18T00:07:55.035Z,8.57
2018-06-18T00:10:23.470Z,10.73
2018-06-18T00:12:51.888Z,7.07
2018-06-18T00:15:20.302Z,9.70
2018-06-18T00:17:48.754Z,8.13
2018-06-18T00:20:17.199Z,10.87
2018-06-18T00:22:45.642Z,6.80
2018-06-18T00:25:16.896Z,12.43
2018-06-18T00:27:45.322Z,9.77
2018-06-18T00:30:13.747Z,11.37
2018-06-18T00:32:42.159Z,9.60
2018-06-18T00:35:10.598Z,8.13
2018-06-18T00:37:39.039Z,12.23
2018-06-18T00:40:07.446Z,8.90
2018-06-18T00:42:35.850Z,8.83
2018-06-18T00:45:04.270Z,7.13
2018-06-18T00:47:32.713Z,9.10
2018-06-18T00:50:01.120Z,7.07
2018-06-18T00:52:29.566Z,7.80
2018-06-18T00:54:57.998Z,11.97
2018-06-18T00:57:26.415Z,13.97
2018-06-18T00:59:54.843Z,8.43
2018-06-18T01:02:23.256Z,9.23
2018-06-18T01:04:51.681Z,9.40
2018-06-18T01:07:20.107Z,12.40
2018-06-18T01:09:48.514Z,8.10
2018-06-18T01:12:16.927Z,7.03
2018-06-18T01:14:45.349Z,9.03
2018-06-18T01:17:13.770Z,8.83
2018-06-18T01:19:42.194Z,9.60
2018-06-18T01:22:10.670Z,11.20
2018-06-18T01:24:44.020Z,7.67
2018-06-18T01:27:12.450Z,8.30
2018-06-18T01:29:40.901Z,9.23
2018-06-18T01:32:09.562Z,6.97
2018-06-18T01:34:38.045Z,8.47
2018-06-18T01:37:06.466Z,7.60
2018-06-18T01:39:34.917Z,9.07
2018-06-18T01:42:03.362Z,10.43
2018-06-18T01:44:31.806Z,8.47
2018-06-18T01:47:00.282Z,10.13
2018-06-18T01:49:28.715Z,10.17
2018-06-18T01:51:57.146Z,8.10
2018-06-18T01:54:25.586Z,10.80
2018-06-18T01:56:54.027Z,6.23
2018-06-18T01:59:22.133Z,7.63
2018-06-18T02:01:50.544Z,5.63
2018-06-18T02:04:18.979Z,8.77
2018-06-18T02:06:47.411Z,7.07
2018-06-18T02:09:15.858Z,10.67
2018-06-18T02:11:44.270Z,6.97
2018-06-18T02:14:12.708Z,9.40
2018-06-18T02:16:41.116Z,7.20
2018-06-18T02:19:10.125Z,16.37
2018-06-18T02:21:39.055Z,8.67
2018-06-18T02:24:07.483Z,8.70
2018-06-18T02:26:35.964Z,10.00
2018-06-18T02:29:09.625Z,8.97
2018-06-18T02:31:43.196Z,11.33
2018-06-18T02:34:16.883Z,8.37
2018-06-18T02:38:53.588Z,8.37
2018-06-18T02:41:22.051Z,7.97
2018-06-18T02:43:50.470Z,6.70
2018-06-18T02:46:18.886Z,10.37
2018-06-18T02:48:47.306Z,11.20
2018-06-18T02:51:15.714Z,8.20
2018-06-18T02:53:44.127Z,8.87
2018-06-18T02:56:12.538Z,8.67
2018-06-18T02:58:40.954Z,9.43
2018-06-18T03:01:09.363Z,8.80
2018-06-18T03:03:37.780Z,9.20
2018-06-18T03:06:06.202Z,8.10
2018-06-18T03:08:34.647Z,11.27
2018-06-18T03:11:03.089Z,9.60
2018-06-18T03:13:31.531Z,10.67
2018-06-18T03:15:59.994Z,13.47
2018-06-18T03:18:33.746Z,11.30
2018-06-18T03:21:07.424Z,9.27
2018-06-18T03:23:41.030Z,10.63
2018-06-18T03:26:15.074Z,11.93
2018-06-18T03:28:48.926Z,12.07
2018-06-18T03:31:17.354Z,11.20
2018-06-18T03:33:45.829Z,12.10
2018-06-18T03:36:15.463Z,8.67
2018-06-18T03:38:43.923Z,10.20
2018-06-18T03:41:12.354Z,12.93
2018-06-18T03:43:45.054Z,11.60
2018-06-18T03:46:13.478Z,10.90
2018-06-18T03:48:41.923Z,10.57
2018-06-18T03:51:10.337Z,12.17
2018-06-18T03:53:38.767Z,13.87
2018-06-18T03:56:07.252Z,11.17
2018-06-18T03:58:35.677Z,8.50
2018-06-18T04:02:15.386Z,12.00
2018-06-18T04:04:54.880Z,11.43
2018-06-18T04:07:28.996Z,9.60
2018-06-18T04:10:02.632Z,11.63
2018-06-18T04:12:31.046Z,10.57
2018-06-18T04:15:00.430Z,7.93
2018-06-18T04:17:28.850Z,9.77
2018-06-18T04:19:57.286Z,8.93
2018-06-18T04:22:25.699Z,12.17
2018-06-18T04:24:54.134Z,13.07
2018-06-18T04:27:22.601Z,9.50
2018-06-18T04:29:51.015Z,9.30
2018-06-18T04:32:19.464Z,7.87
2018-06-18T04:34:53.380Z,11.27
2018-06-18T04:37:21.798Z,10.57
2018-06-18T04:39:50.242Z,9.70
2018-06-18T04:42:23.813Z,8.67
2018-06-18T04:44:58.077Z,12.17
2018-06-18T04:47:31.798Z,11.60
2018-06-18T04:50:05.580Z,7.53
2018-06-18T04:52:33.991Z,7.73
2018-06-18T04:55:02.441Z,9.93
2018-06-18T04:57:30.865Z,9.60
2018-06-18T05:00:09.630Z,12.77
2018-06-18T05:02:38.075Z,11.37
2018-06-18T05:05:06.522Z,7.67
2018-06-18T05:07:35.016Z,8.77
2018-06-18T05:10:16.082Z,9.97
2018-06-18T05:12:44.509Z,12.50
2018-06-18T05:15:12.972Z,16.87
2018-06-18T05:17:41.406Z,9.57
2018-06-18T05:20:09.841Z,12.03
2018-06-18T05:22:38.307Z,9.40
2018-06-18T05:25:06.958Z,10.40
2018-06-18T05:27:35.586Z,12.70
2018-06-18T05:30:08.270Z,10.60
2018-06-18T05:32:36.703Z,8.70
2018-06-18T05:35:06.415Z,11.40
2018-06-18T05:37:57.596Z,13.63
2018-06-18T05:40:26.013Z,11.83
2018-06-18T05:42:54.450Z,10.07
2018-06-18T05:45:24.212Z,11.17
2018-06-18T05:47:52.610Z,12.37
2018-06-18T05:50:21.266Z,12.60
2018-06-18T05:52:49.678Z,7.87
2018-06-18T05:55:18.103Z,11.73
2018-06-18T05:57:46.533Z,15.80
2018-06-18T06:00:15.318Z,13.17
2018-06-18T06:02:43.750Z,8.83
2018-06-18T06:05:12.202Z,12.73
2018-06-18T06:07:40.626Z,12.87
2018-06-18T06:10:09.070Z,12.90
2018-06-18T06:12:37.499Z,11.10
2018-06-18T06:15:06.119Z,14.60
2018-06-18T06:17:34.570Z,9.47
2018-06-18T06:20:02.987Z,10.73
2018-06-18T06:22:31.455Z,10.70
2018-06-18T06:24:59.871Z,10.93
2018-06-18T06:27:28.322Z,10.07
2018-06-18T06:29:56.747Z,13.80
2018-06-18T06:32:25.210Z,12.77
2018-06-18T06:34:58.115Z,11.53
2018-06-18T06:37:26.979Z,11.53
2018-06-18T06:39:55.482Z,9.50
2018-06-18T06:42:23.914Z,8.47
2018-06-18T06:44:52.339Z,9.70
2018-06-18T06:47:20.772Z,11.43
2018-06-18T06:49:49.197Z,13.73
2018-06-18T06:52:17.626Z,8.67
2018-06-18T06:54:46.038Z,12.57
2018-06-18T06:57:14.490Z,12.27
2018-06-18T06:59:42.942Z,10.47
2018-06-18T07:02:11.357Z,12.10
2018-06-18T07:04:39.822Z,9.40
2018-06-18T07:07:08.262Z,10.73
2018-06-18T07:09:36.722Z,9.40
2018-06-18T07:12:05.146Z,12.03
2018-06-18T07:14:33.606Z,11.47
2018-06-18T07:17:02.066Z,17.17
2018-06-18T07:19:30.551Z,31.27
2018-06-18T07:21:58.991Z,16.70
2018-06-18T07:24:27.445Z,9.90
2018-06-18T07:26:55.875Z,8.40
2018-06-18T07:29:24.338Z,9.73
2018-06-18T07:31:52.768Z,11.83
2018-06-18T07:34:21.237Z,7.40
2018-06-18T07:36:49.721Z,11.30
2018-06-18T07:39:18.177Z,12.10
2018-06-18T07:41:46.612Z,10.07
2018-06-18T07:44:15.075Z,7.10
2018-06-18T07:46:43.517Z,9.23
2018-06-18T07:49:11.975Z,6.23
2018-06-18T07:51:40.435Z,7.13
2018-06-18T07:54:08.870Z,6.87
2018-06-18T07:56:37.286Z,8.97
2018-06-18T07:59:05.719Z,8.97
2018-06-18T08:01:34.158Z,7.60
2018-06-18T08:04:02.605Z,6.67
2018-06-18T08:06:31.037Z,8.23
2018-06-18T08:08:59.520Z,6.50
2018-06-18T08:11:28.112Z,10.30
2018-06-18T08:13:56.563Z,7.13
2018-06-18T08:16:24.977Z,8.97
2018-06-18T08:18:53.098Z,10.13
2018-06-18T08:21:21.538Z,8.57
2018-06-18T08:23:50.079Z,13.03
2018-06-18T08:26:18.414Z,12.33
2018-06-18T08:28:46.859Z,7.43
2018-06-18T08:31:15.304Z,6.07
2018-06-18T08:33:43.750Z,7.73
2018-06-18T08:36:12.168Z,9.20
2018-06-18T08:38:40.587Z,8.67
2018-06-18T08:41:09.030Z,8.13
2018-06-18T08:43:37.463Z,9.00
2018-06-18T08:46:05.910Z,7.77
2018-06-18T08:48:39.564Z,18.93
2018-06-18T08:51:13.159Z,9.25
2018-06-18T08:53:47.355Z,8.05
2018-06-18T08:56:21.146Z,6.25
2018-06-18T08:58:54.847Z,8.35
2018-06-18T09:01:27.082Z,7.97
2018-06-18T09:04:00.927Z,8.00
2018-06-18T09:06:29.370Z,7.53
2018-06-18T09:08:58.531Z,7.80
2018-06-18T09:11:27.730Z,8.65
2018-06-18T09:13:57.279Z,5.67
2018-06-18T09:16:25.686Z,7.37
2018-06-18T09:18:54.321Z,9.53
2018-06-18T09:21:22.765Z,9.20
2018-06-18T09:23:51.193Z,6.67
2018-06-18T09:26:19.636Z,5.35
2018-06-18T09:28:48.082Z,8.45
2018-06-18T09:31:16.546Z,5.77
2018-06-18T09:33:45.376Z,9.90
2018-06-18T09:36:14.055Z,6.03
2018-06-18T09:38:42.468Z,6.40
2018-06-18T09:41:10.891Z,8.97
2018-06-18T09:43:39.322Z,5.40
2018-06-18T09:46:07.747Z,8.07
2018-06-18T09:50:45.520Z,7.37
2018-06-18T09:53:19.176Z,7.83
2018-06-18T09:55:52.996Z,6.63
2018-06-18T09:58:26.567Z,7.17
2018-06-18T10:01:04.618Z,5.23
2018-06-18T10:03:33.614Z,11.13
2018-06-18T10:06:02.878Z,8.97
2018-06-18T10:08:31.435Z,4.97
2018-06-18T10:10:59.790Z,6.33
2018-06-18T10:13:28.229Z,5.80
2018-06-18T10:15:56.716Z,6.93
2018-06-18T10:18:25.171Z,6.20
2018-06-18T10:20:53.590Z,5.50
2018-06-18T10:23:22.039Z,5.53
2018-06-18T10:25:50.455Z,5.47
2018-06-18T10:28:18.918Z,5.53
2018-06-18T10:30:47.357Z,6.50
2018-06-18T10:33:20.938Z,7.40
2018-06-18T10:35:54.604Z,6.40
2018-06-18T10:38:28.350Z,5.93
2018-06-18T10:41:02.221Z,9.17
2018-06-18T10:43:32.232Z,8.40
2018-06-18T10:46:00.662Z,6.87
2018-06-18T10:48:29.103Z,6.20
2018-06-18T10:50:57.535Z,8.23
2018-06-18T10:53:25.962Z,7.60
2018-06-18T10:55:54.589Z,8.97
2018-06-18T10:58:23.082Z,5.30
2018-06-18T11:01:00.980Z,6.90
2018-06-18T11:03:29.357Z,5.97
2018-06-18T11:06:03.063Z,9.40
2018-06-18T11:08:31.489Z,9.70
2018-06-18T11:10:59.975Z,8.00
2018-06-18T11:13:28.486Z,7.17
2018-06-18T11:15:57.050Z,8.30
2018-06-18T11:18:30.695Z,7.60
2018-06-18T11:21:04.384Z,7.63
2018-06-18T11:23:38.630Z,6.40
2018-06-18T11:26:12.319Z,7.47
2018-06-18T11:28:40.850Z,7.03
2018-06-18T11:31:09.273Z,9.50
2018-06-18T11:33:38.228Z,8.40
2018-06-18T11:36:06.758Z,9.03
2018-06-18T11:38:35.195Z,11.83
2018-06-18T11:41:03.669Z,5.83
2018-06-18T11:43:32.169Z,6.23
2018-06-18T11:46:00.601Z,8.33
2018-06-18T11:48:29.055Z,5.47
2018-06-18T11:50:57.490Z,7.47
2018-06-18T11:53:25.904Z,6.00
2018-06-18T11:55:55.395Z,6.60
2018-06-18T11:58:28.965Z,7.20
2018-06-18T12:01:02.694Z,5.70
2018-06-18T12:03:37.087Z,5.00
2018-06-18T12:06:10.702Z,7.33
2018-06-18T12:08:44.324Z,5.07
2018-06-18T12:11:12.823Z,4.70
2018-06-18T12:13:42.506Z,8.00
2018-06-18T12:16:10.922Z,7.73
2018-06-18T12:18:39.338Z,6.10
2018-06-18T12:21:07.851Z,5.83
2018-06-18T12:23:36.333Z,7.63
2018-06-18T12:26:04.825Z,8.90
2018-06-18T12:28:33.467Z,4.40
2018-06-18T12:31:01.950Z,10.20
2018-06-18T12:33:30.450Z,7.43
2018-06-18T12:35:58.996Z,9.43
2018-06-18T12:38:27.489Z,8.50
2018-06-18T12:40:55.998Z,5.33
2018-06-18T12:43:26.504Z,3.93
2018-06-18T12:46:00.745Z,6.57
2018-06-18T12:48:34.549Z,7.07
2018-06-18T12:51:08.159Z,3.97
2018-06-18T12:53:42.043Z,2.90
2018-06-18T12:56:15.618Z,3.87
2018-06-18T12:58:44.096Z,4.57
2018-06-18T13:01:15.145Z,3.00
2018-06-18T13:03:48.615Z,5.43
2018-06-18T13:06:17.039Z,3.00
2018-06-18T13:08:45.547Z,4.27
2018-06-18T13:11:14.004Z,3.33
2018-06-18T13:13:42.448Z,4.07
2018-06-18T13:16:10.878Z,3.67
2018-06-18T13:18:39.287Z,3.90
2018-06-18T13:21:07.733Z,3.70
2018-06-18T13:23:36.195Z,3.90
2018-06-18T13:26:04.655Z,3.67
2018-06-18T13:28:33.101Z,3.97
2018-06-18T13:31:01.674Z,4.13
2018-06-18T13:33:30.115Z,5.40
2018-06-18T13:35:58.538Z,7.20
2018-06-18T13:40:34.057Z,6.00
2018-06-18T13:43:07.902Z,6.53
2018-06-18T13:45:44.323Z,8.03
2018-06-18T13:48:18.046Z,10.50
2018-06-18T13:50:46.466Z,8.47
2018-06-18T13:53:14.914Z,10.87
2018-06-18T13:55:43.327Z,7.47
2018-06-18T13:58:11.740Z,7.23
2018-06-18T14:00:40.297Z,10.70
2018-06-18T14:03:08.741Z,6.37
2018-06-18T14:05:37.247Z,7.83
2018-06-18T14:08:05.698Z,6.37
2018-06-18T14:10:34.131Z,9.27
2018-06-18T14:13:02.566Z,7.33
2018-06-18T14:15:30.999Z,8.53
2018-06-18T14:17:59.453Z,7.10
2018-06-18T14:20:28.249Z,8.03
2018-06-18T14:22:56.389Z,7.10
2018-06-18T14:25:24.850Z,7.70
2018-06-18T14:27:53.273Z,7.60
2018-06-18T14:30:27.040Z,7.90
2018-06-18T14:33:00.766Z,9.33
2018-06-18T14:37:38.720Z,7.83
2018-06-18T14:40:16.187Z,7.47
2018-06-18T14:42:44.804Z,6.83
2018-06-18T14:45:13.400Z,7.10
2018-06-18T14:47:42.207Z,6.67
2018-06-18T14:50:10.626Z,6.80
2018-06-18T14:52:39.066Z,7.20
2018-06-18T14:55:08.700Z,6.73
2018-06-18T14:57:37.136Z,8.47
2018-06-18T15:00:10.744Z,7.67
2018-06-18T15:02:40.017Z,7.77
2018-06-18T15:05:09.165Z,7.57
2018-06-18T15:07:37.562Z,7.70
2018-06-18T15:10:05.966Z,7.77
2018-06-18T15:12:43.683Z,7.97
2018-06-18T15:15:17.503Z,8.03
2018-06-18T15:17:45.942Z,8.87
2018-06-18T15:20:14.339Z,8.50
2018-06-18T15:22:48.878Z,9.03
2018-06-18T15:25:17.337Z,8.60
2018-06-18T15:27:45.763Z,7.97
2018-06-18T15:30:14.204Z,8.20
2018-06-18T15:32:42.638Z,11.13
2018-06-18T15:35:11.051Z,8.57
2018-06-18T15:37:39.474Z,9.67
2018-06-18T15:40:07.908Z,8.73
2018-06-18T15:42:36.323Z,7.97
2018-06-18T15:45:04.759Z,7.50
2018-06-18T15:47:33.762Z,8.07
2018-06-18T15:50:02.174Z,7.63
2018-06-18T15:52:30.614Z,7.87
2018-06-18T15:54:59.032Z,8.63
2018-06-18T15:57:27.487Z,7.90
2018-06-18T15:59:55.912Z,8.63
2018-06-18T16:02:24.402Z,7.97
2018-06-18T16:04:52.835Z,10.60
2018-06-18T16:07:21.310Z,8.00
2018-06-18T16:09:49.722Z,7.60
2018-06-18T16:12:18.166Z,8.90
2018-06-18T16:14:46.571Z,7.47
2018-06-18T16:17:15.001Z,10.07
2018-06-18T16:19:43.618Z,12.53
2018-06-18T16:22:12.042Z,8.77
2018-06-18T16:24:40.483Z,8.83
2018-06-18T16:27:08.902Z,9.97
2018-06-18T16:29:37.330Z,9.13
2018-06-18T16:32:05.870Z,10.10
2018-06-18T16:34:34.315Z,9.33
2018-06-18T16:37:02.718Z,9.63
2018-06-18T16:39:31.195Z,8.87
2018-06-18T16:41:59.682Z,9.43
2018-06-18T16:44:28.715Z,9.27
2018-06-18T16:46:57.134Z,9.53
2018-06-18T16:49:25.584Z,12.33
2018-06-18T16:51:54.019Z,9.93
2018-06-18T16:54:22.455Z,9.73
2018-06-18T16:56:50.908Z,10.10
2018-06-18T16:59:19.375Z,10.40
2018-06-18T17:01:47.827Z,10.77
2018-06-18T17:04:16.282Z,11.87
2018-06-18T17:06:44.711Z,11.47
2018-06-18T17:09:13.212Z,12.20
2018-06-18T17:11:41.631Z,11.23
2018-06-18T17:14:10.085Z,11.60
2018-06-18T17:16:38.584Z,11.93
2018-06-18T17:19:07.018Z,12.33
2018-06-18T17:21:35.422Z,11.50
2018-06-18T17:24:03.864Z,11.77
2018-06-18T17:26:32.279Z,11.43
2018-06-18T17:29:00.710Z,13.63
2018-06-18T17:31:29.148Z,12.03
2018-06-18T17:33:57.594Z,11.87
2018-06-18T17:36:26.007Z,12.27
2018-06-18T17:38:54.113Z,12.60
2018-06-18T17:41:22.543Z,11.90
2018-06-18T17:43:50.990Z,11.43
2018-06-18T17:46:19.472Z,11.97
2018-06-18T17:48:47.907Z,12.50
2018-06-18T17:51:16.328Z,10.87
2018-06-18T17:53:44.758Z,11.43
2018-06-18T17:56:13.216Z,12.07
2018-06-18T17:58:41.677Z,11.20
2018-06-18T18:01:10.207Z,10.90
2018-06-18T18:03:38.663Z,11.30
2018-06-18T18:06:07.078Z,10.93
2018-06-18T18:08:35.513Z,10.57
2018-06-18T18:11:04.023Z,11.13
2018-06-18T18:13:32.522Z,11.60
2018-06-18T18:16:00.902Z,10.43
2018-06-18T18:18:29.646Z,10.20
2018-06-18T18:20:58.098Z,11.93
2018-06-18T18:23:26.596Z,10.90
2018-06-18T18:25:55.078Z,12.13
2018-06-18T18:28:23.554Z,13.90
2018-06-18T18:30:52.185Z,11.10
2018-06-18T18:33:20.620Z,11.13
2018-06-18T18:35:49.093Z,11.87
2018-06-18T18:38:17.554Z,10.93
2018-06-18T18:40:45.694Z,10.77
2018-06-18T18:43:14.114Z,13.10
2018-06-18T18:45:42.522Z,11.00
2018-06-18T18:48:10.932Z,11.23
2018-06-18T18:50:39.363Z,10.80
2018-06-18T18:53:07.814Z,11.33
2018-06-18T18:55:52.006Z,9.83
2018-06-18T18:58:31.648Z,11.03
2018-06-18T19:01:00.699Z,10.07
2018-06-18T19:03:30.116Z,10.77
2018-06-18T19:05:59.195Z,10.23
2018-06-18T19:08:29.479Z,10.20
2018-06-18T19:10:59.171Z,9.47
2018-06-18T19:13:30.821Z,11.73
2018-06-18T19:15:59.520Z,11.50
2018-06-18T19:18:27.963Z,12.73
2018-06-18T19:20:59.773Z,12.87
2018-06-18T19:23:28.351Z,12.53
2018-06-18T19:25:56.762Z,11.87
2018-06-18T19:28:25.199Z,10.03
2018-06-18T19:30:58.372Z,11.30
2018-06-18T19:33:31.078Z,10.80
2018-06-18T19:35:59.496Z,10.63
2018-06-18T19:38:27.967Z,10.83
2018-06-18T19:40:57.031Z,11.40
2018-06-18T19:43:25.470Z,12.57
2018-06-18T19:45:55.007Z,12.10
2018-06-18T19:48:28.571Z,12.83
2018-06-18T19:50:58.111Z,12.40
2018-06-18T19:53:26.627Z,12.10
2018-06-18T19:55:55.042Z,13.00
2018-06-18T19:58:23.514Z,12.43
2018-06-18T20:00:55.131Z,13.37
2018-06-18T20:03:23.675Z,14.30
2018-06-18T20:05:53.722Z,14.03
2018-06-18T20:08:25.131Z,15.03
2018-06-18T20:10:54.447Z,14.60
2018-06-18T20:13:22.886Z,14.87
2018-06-18T20:15:51.372Z,19.00
2018-06-18T20:18:19.794Z,15.87
2018-06-18T20:20:48.235Z,15.50
2018-06-18T20:23:20.715Z,16.07
2018-06-18T20:26:00.770Z,16.27
2018-06-18T20:28:29.212Z,16.23
2018-06-18T20:30:58.886Z,14.57
2018-06-18T20:33:27.419Z,16.07
2018-06-18T20:35:59.237Z,14.60
2018-06-18T20:38:27.683Z,14.60
2018-06-18T20:40:56.091Z,14.53
2018-06-18T20:43:26.873Z,15.60
2018-06-18T20:45:56.008Z,16.00
2018-06-18T20:48:24.417Z,16.20
2018-06-18T20:50:52.847Z,17.43
2018-06-18T20:53:21.262Z,20.43
2018-06-18T20:55:49.727Z,19.87
2018-06-18T20:58:18.155Z,21.07
2018-06-18T21:00:46.655Z,20.57
2018-06-18T21:03:15.182Z,25.27
2018-06-18T21:05:43.645Z,18.13
2018-06-18T21:08:12.058Z,16.57
2018-06-18T21:10:40.535Z,15.53
2018-06-18T21:13:08.948Z,18.20
2018-06-18T21:15:37.420Z,15.40
2018-06-18T21:18:06.141Z,15.40
2018-06-18T21:20:34.593Z,15.13
2018-06-18T21:23:03.004Z,14.17
2018-06-18T21:25:31.451Z,12.67
2018-06-18T21:27:59.678Z,13.07
2018-06-18T21:30:28.114Z,12.63
2018-06-18T21:32:56.544Z,12.37
2018-06-18T21:35:24.983Z,10.67
2018-06-18T21:37:53.391Z,11.03
2018-06-18T21:40:21.832Z,10.23
2018-06-18T21:42:50.254Z,10.30
2018-06-18T21:45:21.538Z,10.03
2018-06-18T21:47:49.946Z,14.27
2018-06-18T21:50:18.627Z,9.90
2018-06-18T21:52:47.070Z,10.57
2018-06-18T21:55:15.476Z,10.60
2018-06-18T21:57:43.918Z,10.03
2018-06-18T22:00:18.753Z,10.63
2018-06-18T22:02:47.210Z,10.27
2018-06-18T22:05:15.621Z,10.63
2018-06-18T22:07:44.606Z,11.07
2018-06-18T22:10:13.596Z,11.43
2018-06-18T22:12:42.207Z,10.87
2018-06-18T22:15:11.217Z,10.43
2018-06-18T22:17:39.633Z,11.30
2018-06-18T22:20:08.073Z,11.07
2018-06-18T22:22:36.606Z,13.13
2018-06-18T22:25:05.026Z,10.57
2018-06-18T22:27:33.494Z,11.73
2018-06-18T22:30:02.118Z,11.50
2018-06-18T22:32:30.534Z,11.20
2018-06-18T22:34:58.956Z,10.57
2018-06-18T22:37:27.369Z,12.23
2018-06-18T22:39:55.802Z,10.90
2018-06-18T22:42:24.308Z,11.03
2018-06-18T22:44:52.676Z,11.10
2018-06-18T22:47:21.078Z,11.60
2018-06-18T22:49:49.509Z,11.53
2018-06-18T22:52:18.071Z,12.23
2018-06-18T22:54:48.113Z,11.73
2018-06-18T22:57:16.906Z,12.53
2018-06-18T22:59:46.188Z,11.63
2018-06-18T23:02:17.698Z,12.33
2018-06-18T23:04:46.103Z,12.27
2018-06-18T23:07:14.524Z,11.93
2018-06-18T23:09:42.934Z,12.47
2018-06-18T23:12:11.377Z,12.60
2018-06-18T23:14:39.913Z,11.70
2018-06-18T23:17:08.349Z,12.40
2018-06-18T23:19:36.803Z,12.63
2018-06-18T23:22:05.347Z,12.20
2018-06-18T23:24:33.775Z,12.60
2018-06-18T23:27:02.211Z,14.07
2018-06-18T23:29:30.642Z,12.93
2018-06-18T23:31:59.086Z,13.93
2018-06-18T23:34:27.490Z,12.70
2018-06-18T23:36:55.954Z,12.87
2018-06-18T23:39:24.368Z,12.50
2018-06-18T23:41:54.966Z,14.67
2018-06-18T23:44:23.381Z,13.83
2018-06-18T23:46:51.867Z,15.40
2018-06-18T23:49:20.283Z,13.83
2018-06-18T23:51:48.836Z,14.10
2018-06-18T23:54:17.299Z,13.63
2018-06-18T23:56:45.761Z,14.70
2018-06-18T23:59:14.184Z,14.87
